Time;durP1;ratioP1;P1;durP2;ratioP2;P2;SDS_P1;SDS_P2;PMS_P1;PMS_P2;Temp;Humidity;BMP_temperature;BMP_pressure;BME280_temperature;BME280_humidity;BME280_pressure;Samples;Min_cycle;Max_cycle;Signal;HPM_P1;HPM_P2
2020/12/26 00:02:02;;;;;;;10.85;7.93;;;1.50;99.90;;;;;;5031551;28;20113;-72
2020/12/26 00:04:28;;;;;;;12.20;8.80;;;1.40;99.90;;;;;;5034203;28;20104;-73
2020/12/26 00:06:53;;;;;;;10.07;7.85;;;1.40;99.90;;;;;;5040781;28;20025;-72
2020/12/26 00:09:19;;;;;;;8.73;7.60;;;1.50;99.90;;;;;;5032334;28;20049;-74
2020/12/26 00:11:45;;;;;;;14.45;9.63;;;1.40;99.90;;;;;;5035846;28;20029;-74
2020/12/26 00:14:10;;;;;;;13.13;8.48;;;1.40;99.90;;;;;;5008975;28;20482;-74
2020/12/26 00:16:36;;;;;;;12.02;8.55;;;1.30;99.90;;;;;;5026961;28;20033;-72
2020/12/26 00:19:01;;;;;;;12.70;8.95;;;1.40;99.90;;;;;;5028377;28;20036;-74
2020/12/26 00:21:27;;;;;;;12.43;8.82;;;1.40;99.90;;;;;;5035208;28;20101;-73
2020/12/26 00:23:52;;;;;;;11.77;8.70;;;1.40;99.90;;;;;;5026727;28;20022;-74
2020/12/26 00:26:18;;;;;;;10.20;8.38;;;1.50;99.90;;;;;;5034976;28;20044;-72
2020/12/26 00:28:44;;;;;;;13.02;9.73;;;1.50;99.90;;;;;;5026352;28;20037;-73
2020/12/26 00:31:19;;;;;;;11.70;8.48;;;1.40;99.90;;;;;;5027351;28;20029;-72
2020/12/26 00:33:45;;;;;;;12.23;8.45;;;1.30;99.90;;;;;;5008365;28;20030;-72
2020/12/26 00:36:11;;;;;;;11.60;10.00;;;1.50;99.90;;;;;;5029384;28;20392;-71
2020/12/26 00:38:37;;;;;;;12.68;9.88;;;1.60;99.90;;;;;;5025629;28;20033;-72
2020/12/26 00:41:02;;;;;;;11.80;8.57;;;1.50;99.90;;;;;;5033892;28;20029;-73
2020/12/26 00:43:28;;;;;;;11.07;9.20;;;1.50;99.90;;;;;;5033961;28;20093;-71
2020/12/26 00:45:53;;;;;;;10.13;9.02;;;1.40;99.90;;;;;;5024355;28;20072;-73
2020/12/26 00:48:19;;;;;;;10.90;8.02;;;1.40;99.90;;;;;;5030369;28;20160;-72
2020/12/26 00:50:44;;;;;;;10.15;7.82;;;1.40;99.90;;;;;;5029344;28;20065;-71
2020/12/26 00:53:10;;;;;;;11.10;7.80;;;1.30;99.90;;;;;;5038034;28;20055;-71
2020/12/26 00:55:35;;;;;;;10.68;8.13;;;1.30;99.90;;;;;;5025720;28;20025;-71
2020/12/26 00:58:01;;;;;;;10.80;8.50;;;1.10;99.90;;;;;;5027072;28;20028;-71
2020/12/26 01:00:27;;;;;;;11.10;7.88;;;1.10;99.90;;;;;;5030853;28;20029;-72
2020/12/26 01:02:52;;;;;;;10.50;8.75;;;1.20;99.90;;;;;;5020731;28;20072;-73
2020/12/26 01:05:18;;;;;;;10.02;8.27;;;1.20;99.90;;;;;;5028257;28;20029;-70
2020/12/26 01:07:43;;;;;;;10.07;9.05;;;1.20;99.90;;;;;;5026799;28;20049;-71
2020/12/26 01:10:09;;;;;;;11.40;9.18;;;1.00;99.90;;;;;;5020403;28;20038;-72
2020/12/26 01:12:34;;;;;;;13.82;9.55;;;0.90;99.90;;;;;;5034633;28;20397;-71
2020/12/26 01:15:00;;;;;;;14.63;10.70;;;0.80;99.90;;;;;;5028342;28;20548;-71
2020/12/26 01:17:26;;;;;;;14.63;10.15;;;0.70;99.90;;;;;;5030567;28;20117;-71
2020/12/26 01:19:51;;;;;;;11.27;10.02;;;0.60;99.90;;;;;;4998837;28;20071;-71
2020/12/26 01:22:17;;;;;;;11.40;9.73;;;0.50;99.90;;;;;;5032271;28;20029;-75
2020/12/26 01:24:43;;;;;;;12.05;9.13;;;0.50;99.90;;;;;;5032976;28;20036;-73
2020/12/26 01:27:08;;;;;;;12.07;9.70;;;0.50;99.90;;;;;;5003450;28;20037;-74
2020/12/26 01:29:35;;;;;;;13.70;11.48;;;0.50;99.90;;;;;;5016133;28;20026;-73
2020/12/26 01:32:01;;;;;;;9.85;8.82;;;0.50;99.90;;;;;;5033792;28;20402;-74
2020/12/26 01:34:26;;;;;;;12.40;9.68;;;0.40;99.90;;;;;;5032712;28;20044;-72
2020/12/26 01:36:55;;;;;;;10.52;9.40;;;0.40;99.90;;;;;;5025490;28;20068;-71
2020/12/26 01:39:22;;;;;;;11.95;10.27;;;0.40;99.90;;;;;;5032294;28;20033;-73
2020/12/26 01:41:52;;;;;;;12.77;10.57;;;0.40;99.90;;;;;;5036488;28;20053;-74
2020/12/26 01:44:18;;;;;;;14.55;10.02;;;0.30;99.90;;;;;;5037707;28;20108;-74
2020/12/26 01:46:46;;;;;;;18.73;11.55;;;0.30;99.90;;;;;;5029863;28;20045;-71
2020/12/26 01:49:13;;;;;;;15.25;11.27;;;0.30;99.90;;;;;;5028533;28;20109;-72
2020/12/26 01:51:40;;;;;;;15.43;11.95;;;0.40;99.90;;;;;;5028033;28;20033;-71
2020/12/26 01:54:05;;;;;;;13.15;10.88;;;0.40;99.90;;;;;;5034631;28;20398;-71
2020/12/26 01:56:31;;;;;;;14.73;10.00;;;0.40;99.90;;;;;;5035577;28;20064;-70
2020/12/26 01:58:57;;;;;;;11.40;10.15;;;0.50;99.90;;;;;;5035873;28;20029;-72
2020/12/26 02:01:32;;;;;;;12.18;9.25;;;0.80;99.90;;;;;;5011829;28;20028;-72
2020/12/26 02:03:59;;;;;;;11.38;9.73;;;0.90;99.90;;;;;;5026441;28;20093;-73
2020/12/26 02:06:30;;;;;;;10.60;9.50;;;1.20;99.90;;;;;;5035159;28;20037;-72
2020/12/26 02:08:59;;;;;;;13.40;10.07;;;1.20;99.90;;;;;;5024090;28;20056;-74
2020/12/26 02:11:25;;;;;;;13.35;10.48;;;1.10;99.90;;;;;;5028604;28;20030;-72
2020/12/26 02:13:51;;;;;;;13.65;10.20;;;1.00;99.90;;;;;;5018861;28;20041;-75
2020/12/26 02:16:17;;;;;;;12.80;9.75;;;1.00;99.90;;;;;;5034772;28;20037;-76
2020/12/26 02:18:42;;;;;;;13.95;10.43;;;1.00;99.90;;;;;;5035523;28;20028;-72
2020/12/26 02:21:08;;;;;;;11.95;10.05;;;1.20;99.90;;;;;;5038019;28;20048;-72
2020/12/26 02:23:42;;;;;;;12.02;10.80;;;1.10;99.90;;;;;;5000731;28;20076;-71
2020/12/26 02:26:07;;;;;;;14.30;10.18;;;1.10;99.90;;;;;;5023500;28;20029;-71
2020/12/26 02:28:33;;;;;;;11.65;9.05;;;1.10;99.90;;;;;;5037134;28;20147;-70
2020/12/26 02:30:58;;;;;;;10.48;9.30;;;1.00;99.90;;;;;;5037861;28;20026;-74
2020/12/26 02:33:24;;;;;;;11.70;9.30;;;1.00;99.90;;;;;;5036779;28;20032;-71
2020/12/26 02:35:50;;;;;;;12.07;10.07;;;1.00;99.90;;;;;;5036449;28;20030;-71
2020/12/26 02:38:19;;;;;;;14.40;11.05;;;1.00;99.90;;;;;;5030619;28;20029;-72
2020/12/26 02:40:49;;;;;;;10.40;9.32;;;1.10;99.90;;;;;;5016686;28;20037;-70
2020/12/26 02:43:26;;;;;;;11.13;9.40;;;1.10;99.90;;;;;;4998293;28;20117;-71
2020/12/26 02:45:54;;;;;;;12.93;10.05;;;1.10;99.90;;;;;;5027917;28;20489;-72
2020/12/26 02:48:20;;;;;;;16.98;10.02;;;1.10;99.90;;;;;;5035320;28;20424;-72
2020/12/26 02:50:45;;;;;;;14.38;11.05;;;1.10;99.90;;;;;;5051947;28;20029;-74
2020/12/26 02:53:11;;;;;;;13.80;9.60;;;1.10;99.90;;;;;;5057393;28;20510;-72
2020/12/26 02:55:36;;;;;;;20.75;10.70;;;1.00;99.90;;;;;;5044245;28;20033;-72
2020/12/26 02:58:02;;;;;;;17.42;13.77;;;1.00;99.90;;;;;;5017034;28;20084;-72
2020/12/26 03:00:28;;;;;;;17.80;11.48;;;1.10;99.90;;;;;;5035746;28;20152;-70
2020/12/26 03:02:54;;;;;;;20.60;12.48;;;1.10;99.90;;;;;;5034501;28;20477;-72
2020/12/26 03:05:19;;;;;;;14.75;10.63;;;1.20;99.90;;;;;;5034807;28;20021;-72
2020/12/26 03:07:45;;;;;;;23.80;11.57;;;1.20;99.90;;;;;;5034298;28;20029;-71
2020/12/26 03:10:11;;;;;;;15.80;11.20;;;1.20;99.90;;;;;;5035805;28;20037;-72
2020/12/26 03:12:36;;;;;;;17.73;10.85;;;1.30;99.90;;;;;;5034728;28;20396;-72
2020/12/26 03:15:03;;;;;;;17.42;10.73;;;1.20;99.90;;;;;;5035236;28;20036;-71
2020/12/26 03:17:28;;;;;;;15.85;10.93;;;1.20;99.90;;;;;;5034402;28;20120;-71
2020/12/26 03:19:54;;;;;;;13.40;10.77;;;1.20;99.90;;;;;;5034188;28;20069;-73
2020/12/26 03:22:19;;;;;;;19.02;10.48;;;1.20;99.90;;;;;;5035303;28;20037;-72
2020/12/26 03:24:45;;;;;;;19.15;11.30;;;1.10;99.90;;;;;;5035379;28;20484;-71
2020/12/26 03:27:11;;;;;;;13.05;9.68;;;1.20;99.90;;;;;;5035817;28;20030;-73
2020/12/26 03:29:36;;;;;;;16.90;11.02;;;1.30;99.90;;;;;;5038839;28;20093;-70
2020/12/26 03:32:02;;;;;;;15.35;11.02;;;1.40;99.90;;;;;;5041136;28;20167;-72
2020/12/26 03:34:28;;;;;;;13.52;9.52;;;1.40;99.90;;;;;;5042949;28;20033;-70
2020/12/26 03:36:53;;;;;;;16.58;10.30;;;1.40;99.90;;;;;;5024752;28;20083;-73
2020/12/26 03:39:19;;;;;;;19.42;10.82;;;1.40;99.90;;;;;;5041477;28;20052;-71
2020/12/26 03:41:45;;;;;;;16.95;10.30;;;1.30;99.90;;;;;;5043210;28;20037;-73
2020/12/26 03:44:10;;;;;;;15.75;10.45;;;1.30;99.90;;;;;;5044478;28;20033;-70
2020/12/26 03:46:36;;;;;;;15.90;11.35;;;1.30;99.90;;;;;;5025024;28;20026;-70
2020/12/26 03:49:02;;;;;;;18.55;11.15;;;1.30;99.90;;;;;;5043671;28;20025;-71
2020/12/26 03:51:28;;;;;;;15.50;11.02;;;1.30;99.90;;;;;;5041922;28;20033;-72
2020/12/26 03:53:53;;;;;;;18.02;10.98;;;1.30;99.90;;;;;;5041994;28;20090;-72
2020/12/26 03:56:19;;;;;;;13.88;11.02;;;1.30;99.90;;;;;;5041445;28;20025;-70
2020/12/26 03:58:45;;;;;;;14.13;10.52;;;1.30;99.90;;;;;;5041645;28;20030;-71
2020/12/26 04:01:11;;;;;;;13.93;10.07;;;1.30;99.90;;;;;;5041558;28;20508;-69
2020/12/26 04:03:36;;;;;;;16.65;10.60;;;1.30;99.90;;;;;;5041306;28;20032;-71
2020/12/26 04:06:02;;;;;;;14.80;10.02;;;1.30;99.90;;;;;;5044445;28;20092;-72
2020/12/26 04:08:29;;;;;;;18.85;12.13;;;1.30;99.90;;;;;;5044605;28;20037;-72
2020/12/26 04:10:54;;;;;;;16.42;10.35;;;1.30;99.90;;;;;;5029959;28;20030;-72
2020/12/26 04:13:20;;;;;;;18.75;12.57;;;1.30;99.90;;;;;;5045236;28;20559;-71
2020/12/26 04:15:45;;;;;;;19.17;11.98;;;1.40;99.90;;;;;;5028998;28;20040;-73
2020/12/26 04:18:11;;;;;;;15.57;10.00;;;1.40;99.90;;;;;;5045526;28;20025;-71
2020/12/26 04:20:37;;;;;;;16.55;10.27;;;1.40;99.90;;;;;;5044576;28;20030;-71
2020/12/26 04:23:02;;;;;;;12.38;10.00;;;1.40;99.90;;;;;;5045470;28;20029;-71
2020/12/26 04:25:29;;;;;;;14.85;10.95;;;1.40;99.90;;;;;;5045001;28;20143;-72
2020/12/26 04:27:55;;;;;;;13.57;10.27;;;1.30;99.90;;;;;;5028887;28;20027;-70
2020/12/26 04:30:21;;;;;;;18.85;10.80;;;1.60;99.90;;;;;;5041450;28;20045;-70
2020/12/26 04:32:47;;;;;;;15.40;9.20;;;1.80;99.90;;;;;;5043187;28;20061;-71
2020/12/26 04:35:12;;;;;;;14.18;9.77;;;1.80;99.90;;;;;;5023427;28;20034;-72
2020/12/26 04:37:38;;;;;;;12.43;10.15;;;1.60;99.90;;;;;;5039479;28;20036;-71
2020/12/26 04:40:03;;;;;;;13.35;10.32;;;1.50;99.90;;;;;;5041366;28;20030;-70
2020/12/26 04:42:30;;;;;;;14.20;9.70;;;1.50;99.90;;;;;;5045654;28;20068;-70
2020/12/26 04:44:57;;;;;;;11.90;10.07;;;1.60;99.90;;;;;;5034516;28;20077;-71
2020/12/26 04:47:30;;;;;;;12.70;9.27;;;1.70;99.90;;;;;;5032854;28;20037;-72
2020/12/26 04:50:00;;;;;;;12.75;9.55;;;1.70;99.90;;;;;;5035002;28;20029;-72
2020/12/26 04:52:29;;;;;;;14.82;10.48;;;1.60;99.90;;;;;;5034535;28;20400;-71
2020/12/26 04:54:55;;;;;;;12.20;10.32;;;1.50;99.90;;;;;;5033668;28;20025;-71
2020/12/26 04:57:22;;;;;;;14.98;10.02;;;1.50;99.90;;;;;;5034350;28;20102;-71
2020/12/26 04:59:48;;;;;;;14.25;11.20;;;1.50;99.90;;;;;;5032972;28;20079;-72
2020/12/26 05:02:15;;;;;;;13.77;10.60;;;1.50;99.90;;;;;;5033970;28;20082;-72
2020/12/26 05:04:43;;;;;;;13.88;10.68;;;1.50;99.90;;;;;;5034054;28;20159;-71
2020/12/26 05:07:11;;;;;;;17.33;10.00;;;1.50;99.90;;;;;;5033473;28;20064;-72
2020/12/26 05:09:36;;;;;;;15.38;10.73;;;1.50;99.90;;;;;;5032133;28;20029;-72
2020/12/26 05:12:02;;;;;;;14.02;10.40;;;1.50;99.90;;;;;;5032570;28;20504;-72
2020/12/26 05:14:30;;;;;;;14.52;10.73;;;1.50;99.90;;;;;;5036179;28;20032;-72
2020/12/26 05:16:56;;;;;;;14.13;10.52;;;1.60;99.90;;;;;;5054292;28;20085;-71
2020/12/26 05:19:22;;;;;;;17.52;12.93;;;1.60;99.90;;;;;;5054314;28;20086;-71
2020/12/26 05:21:53;;;;;;;22.70;11.95;;;1.70;99.90;;;;;;5051694;28;20029;-72
2020/12/26 05:24:19;;;;;;;19.35;10.38;;;1.70;99.90;;;;;;5039121;28;20026;-72
2020/12/26 05:26:47;;;;;;;18.70;11.32;;;1.70;99.90;;;;;;5033416;28;20048;-75
2020/12/26 05:29:14;;;;;;;18.92;10.15;;;1.80;99.90;;;;;;5030437;28;20212;-71
2020/12/26 05:31:56;;;;;;;18.98;11.43;;;1.80;99.90;;;;;;5031936;28;20029;-71
2020/12/26 05:34:32;;;;;;;14.40;11.02;;;1.70;99.90;;;;;;5033419;28;20026;-72
2020/12/26 05:37:02;;;;;;;13.52;10.20;;;1.80;99.90;;;;;;5036971;28;20103;-72
2020/12/26 05:39:39;;;;;;;20.47;12.17;;;1.80;99.90;;;;;;5033723;28;20492;-71
2020/12/26 05:42:05;;;;;;;16.20;10.88;;;1.80;99.90;;;;;;5034118;28;20040;-71
2020/12/26 05:44:34;;;;;;;11.73;9.05;;;2.00;99.90;;;;;;5034154;28;20022;-71
2020/12/26 05:47:05;;;;;;;11.88;9.07;;;2.20;99.90;;;;;;5033906;28;20040;-71
2020/12/26 05:49:32;;;;;;;17.45;10.48;;;2.30;99.90;;;;;;5038079;28;20029;-72
2020/12/26 05:52:09;;;;;;;19.35;10.60;;;2.40;99.90;;;;;;5052241;28;20045;-71
2020/12/26 05:54:36;;;;;;;17.02;10.60;;;2.40;99.90;;;;;;5044355;28;20071;-71
2020/12/26 05:57:07;;;;;;;16.42;12.38;;;2.40;99.90;;;;;;5034751;28;20029;-71
2020/12/26 05:59:33;;;;;;;20.27;11.52;;;2.40;99.90;;;;;;5035094;28;20436;-72
2020/12/26 06:02:15;;;;;;;15.43;11.48;;;2.30;99.90;;;;;;5035536;28;20029;-71
2020/12/26 06:05:04;;;;;;;15.85;11.98;;;2.00;99.90;;;;;;5035728;28;20022;-71
2020/12/26 06:07:35;;;;;;;16.33;12.27;;;1.70;99.90;;;;;;5035160;28;20034;-71
2020/12/26 06:10:05;;;;;;;15.55;11.85;;;1.50;99.90;;;;;;5018402;28;20120;-73
2020/12/26 06:12:30;;;;;;;18.35;12.20;;;1.30;99.90;;;;;;5035507;28;20045;-73
2020/12/26 06:14:57;;;;;;;14.55;12.02;;;1.20;99.90;;;;;;5036539;28;20085;-72
2020/12/26 06:17:24;;;;;;;15.23;11.93;;;1.10;99.90;;;;;;5035743;28;20061;-72
2020/12/26 06:20:00;;;;;;;16.23;11.70;;;1.00;99.90;;;;;;5036804;28;20097;-71
2020/12/26 06:22:42;;;;;;;17.80;12.98;;;1.00;99.90;;;;;;5037546;28;20029;-72
2020/12/26 06:25:11;;;;;;;17.10;11.98;;;0.90;99.90;;;;;;5034016;28;20026;-72
2020/12/26 06:27:45;;;;;;;17.17;11.95;;;0.80;99.90;;;;;;5021297;28;20025;-71
2020/12/26 06:30:10;;;;;;;19.38;13.07;;;0.80;99.90;;;;;;5039976;28;20033;-72
2020/12/26 06:32:36;;;;;;;17.17;12.63;;;0.80;99.90;;;;;;5038760;28;20033;-72
2020/12/26 06:35:02;;;;;;;18.35;12.60;;;0.70;99.90;;;;;;5039561;28;20033;-72
2020/12/26 06:37:28;;;;;;;17.00;12.15;;;0.70;99.90;;;;;;5021885;28;20067;-73
2020/12/26 06:39:53;;;;;;;16.02;11.75;;;0.70;99.90;;;;;;5039845;28;20528;-72
2020/12/26 06:42:19;;;;;;;17.88;12.43;;;0.90;99.90;;;;;;5040609;28;20493;-71
2020/12/26 06:44:48;;;;;;;17.88;12.85;;;0.80;99.90;;;;;;5039891;28;20044;-72
2020/12/26 06:47:36;;;;;;;17.63;12.73;;;1.10;99.90;;;;;;5039879;28;20035;-73
2020/12/26 06:50:35;;;;;;;20.52;12.07;;;1.20;99.90;;;;;;5040398;28;20021;-73
2020/12/26 06:53:01;;;;;;;17.50;12.93;;;1.00;99.90;;;;;;4989247;28;20033;-71
2020/12/26 06:55:44;;;;;;;17.10;11.60;;;1.00;99.90;;;;;;5039771;28;20151;-71
2020/12/26 06:58:23;;;;;;;19.23;12.90;;;1.00;99.90;;;;;;5039210;28;20087;-73
2020/12/26 07:00:48;;;;;;;17.77;13.65;;;0.90;99.90;;;;;;5038667;28;20022;-73
2020/12/26 07:03:25;;;;;;;22.35;14.18;;;0.80;99.90;;;;;;5030999;28;20068;-70
2020/12/26 07:05:52;;;;;;;23.75;16.38;;;0.70;99.90;;;;;;5038760;28;20025;-72
2020/12/26 07:08:25;;;;;;;24.05;14.57;;;0.70;99.90;;;;;;5037068;28;20025;-71
2020/12/26 07:10:51;;;;;;;21.27;14.73;;;0.70;99.90;;;;;;5035355;28;20083;-71
2020/12/26 07:13:48;;;;;;;21.77;14.18;;;0.60;99.90;;;;;;5035003;28;20026;-71
2020/12/26 07:16:35;;;;;;;19.58;14.35;;;0.70;99.90;;;;;;5029918;28;20069;-71
2020/12/26 07:19:20;;;;;;;23.90;14.75;;;0.70;99.90;;;;;;5009876;28;20079;-70
2020/12/26 07:22:01;;;;;;;29.55;17.95;;;0.60;99.90;;;;;;5034533;28;20489;-70
2020/12/26 07:24:34;;;;;;;29.85;17.27;;;0.70;99.90;;;;;;5034138;28;20034;-71
2020/12/26 07:27:17;;;;;;;22.63;14.23;;;0.70;99.90;;;;;;5019809;28;20082;-71
2020/12/26 07:30:08;;;;;;;27.92;15.18;;;0.80;99.90;;;;;;5034180;28;20026;-71
2020/12/26 07:32:37;;;;;;;25.90;15.52;;;0.80;99.90;;;;;;5026543;28;20405;-72
2020/12/26 07:35:03;;;;;;;24.73;15.73;;;0.90;99.90;;;;;;5019244;28;20035;-71
2020/12/26 07:37:29;;;;;;;21.20;14.25;;;0.90;99.90;;;;;;5036837;28;20052;-71
2020/12/26 07:39:54;;;;;;;19.27;14.05;;;0.90;99.90;;;;;;5035802;28;20014;-71
2020/12/26 07:42:22;;;;;;;24.63;14.77;;;1.00;99.90;;;;;;5036337;28;20040;-71
2020/12/26 07:44:48;;;;;;;20.70;13.20;;;1.00;99.90;;;;;;5018017;28;20060;-71
2020/12/26 07:47:14;;;;;;;18.30;13.00;;;1.10;99.90;;;;;;5035885;28;20040;-70
2020/12/26 07:49:40;;;;;;;20.90;14.30;;;1.10;99.90;;;;;;5034617;28;20478;-70
2020/12/26 07:52:07;;;;;;;15.88;12.20;;;1.20;99.90;;;;;;5035782;28;20046;-71
2020/12/26 07:54:35;;;;;;;19.65;12.50;;;1.20;99.90;;;;;;5034110;28;20065;-71
2020/12/26 07:57:01;;;;;;;19.45;12.50;;;1.40;99.90;;;;;;5029225;28;20033;-70
2020/12/26 07:59:27;;;;;;;18.38;12.63;;;1.40;99.90;;;;;;5035843;28;20507;-71
2020/12/26 08:01:55;;;;;;;24.25;11.77;;;1.40;99.90;;;;;;5036387;28;20026;-70
2020/12/26 08:04:21;;;;;;;20.98;12.80;;;1.50;99.90;;;;;;5035847;28;20076;-71
2020/12/26 08:06:48;;;;;;;24.38;11.98;;;1.50;99.90;;;;;;5035098;28;20033;-70
2020/12/26 08:09:15;;;;;;;22.70;10.98;;;1.60;99.90;;;;;;5033962;28;20065;-71
2020/12/26 08:11:42;;;;;;;19.52;11.80;;;1.70;99.90;;;;;;5034149;28;20064;-70
2020/12/26 08:14:09;;;;;;;18.90;11.80;;;1.70;99.90;;;;;;5042368;28;20112;-72
2020/12/26 08:16:35;;;;;;;16.75;10.60;;;1.80;99.90;;;;;;5031362;28;20117;-72
2020/12/26 08:19:02;;;;;;;18.40;11.13;;;1.80;99.90;;;;;;5052053;28;20041;-71
2020/12/26 08:21:29;;;;;;;20.92;12.23;;;1.90;99.90;;;;;;5046258;28;20029;-71
2020/12/26 08:23:55;;;;;;;16.75;11.80;;;1.80;99.90;;;;;;5028926;28;20052;-73
2020/12/26 08:26:22;;;;;;;17.10;11.18;;;1.80;99.90;;;;;;5048875;28;20105;-72
2020/12/26 08:28:48;;;;;;;19.27;10.55;;;1.80;99.90;;;;;;5018037;28;20120;-72
2020/12/26 08:31:15;;;;;;;15.48;9.95;;;1.80;99.90;;;;;;5045164;28;20037;-74
2020/12/26 08:33:47;;;;;;;13.70;10.27;;;1.90;99.90;;;;;;5048706;28;20032;-74
2020/12/26 08:36:37;;;;;;;14.50;10.07;;;1.90;99.90;;;;;;5015440;28;20048;-71
2020/12/26 08:39:04;;;;;;;17.20;10.63;;;1.90;99.90;;;;;;5033962;28;20091;-71
2020/12/26 08:41:32;;;;;;;15.60;10.23;;;1.90;99.90;;;;;;5034972;28;20075;-71
2020/12/26 08:43:58;;;;;;;12.68;9.55;;;1.90;99.90;;;;;;5020257;28;20401;-70
2020/12/26 08:46:25;;;;;;;16.45;8.80;;;2.00;99.90;;;;;;5037642;28;20037;-70
2020/12/26 08:48:52;;;;;;;13.23;9.73;;;2.00;99.90;;;;;;5034310;28;20473;-72
2020/12/26 08:51:20;;;;;;;16.50;10.15;;;2.10;99.90;;;;;;5033899;28;20052;-71
2020/12/26 08:53:47;;;;;;;18.00;10.07;;;2.10;99.90;;;;;;5034184;28;20025;-70
2020/12/26 08:56:13;;;;;;;18.27;10.18;;;2.20;99.90;;;;;;5043270;28;20033;-71
2020/12/26 08:58:46;;;;;;;14.65;10.77;;;2.20;99.90;;;;;;5044040;28;20049;-72
2020/12/26 09:01:11;;;;;;;13.77;10.07;;;2.30;99.90;;;;;;5034524;28;20033;-71
2020/12/26 09:03:37;;;;;;;15.90;8.88;;;2.40;99.90;;;;;;5033997;28;20033;-72
2020/12/26 09:06:03;;;;;;;13.15;8.65;;;2.50;99.90;;;;;;5035994;28;20030;-72
2020/12/26 09:08:36;;;;;;;17.17;9.23;;;2.50;99.90;;;;;;5042656;28;20034;-73
2020/12/26 09:11:10;;;;;;;10.00;8.43;;;2.60;99.90;;;;;;5028127;28;20551;-72
2020/12/26 09:13:49;;;;;;;11.57;9.80;;;2.70;99.90;;;;;;5043179;28;20477;-72
2020/12/26 09:16:15;;;;;;;12.60;8.68;;;3.00;99.90;;;;;;5041536;28;20038;-73
2020/12/26 09:18:44;;;;;;;15.48;9.13;;;3.10;99.90;;;;;;5038435;28;20055;-71
2020/12/26 09:21:21;;;;;;;12.68;8.55;;;3.10;99.90;;;;;;5018967;28;20425;-71
2020/12/26 09:23:47;;;;;;;10.77;8.48;;;3.10;99.90;;;;;;5035650;28;20026;-71
2020/12/26 09:26:24;;;;;;;16.00;8.40;;;3.10;99.90;;;;;;5034573;28;20040;-71
2020/12/26 09:28:58;;;;;;;9.52;8.52;;;3.00;99.90;;;;;;5034064;28;20068;-72
2020/12/26 09:31:25;;;;;;;11.20;8.07;;;3.10;99.90;;;;;;5034561;28;20392;-72
2020/12/26 09:33:52;;;;;;;10.65;8.40;;;3.10;99.90;;;;;;5016043;28;20095;-72
2020/12/26 09:36:20;;;;;;;14.00;8.45;;;3.00;99.90;;;;;;5015732;28;20076;-73
2020/12/26 09:38:47;;;;;;;10.52;8.40;;;3.10;99.90;;;;;;5034069;28;20021;-71
2020/12/26 09:41:23;;;;;;;12.15;8.07;;;3.10;99.90;;;;;;5015776;28;20026;-72
2020/12/26 09:43:54;;;;;;;13.63;8.10;;;3.20;99.90;;;;;;5015412;28;20119;-72
2020/12/26 09:46:21;;;;;;;8.57;7.25;;;3.20;99.90;;;;;;5032281;28;20117;-72
2020/12/26 09:48:48;;;;;;;11.10;6.93;;;3.30;99.90;;;;;;5031308;28;20044;-72
2020/12/26 09:51:19;;;;;;;10.98;7.05;;;3.30;99.90;;;;;;5014375;28;20033;-71
2020/12/26 09:53:45;;;;;;;9.55;7.13;;;3.40;99.90;;;;;;5031519;28;20064;-71
2020/12/26 09:56:12;;;;;;;11.10;7.65;;;3.50;99.90;;;;;;5014953;28;20025;-71
2020/12/26 09:58:39;;;;;;;8.90;6.45;;;3.50;99.90;;;;;;5035475;28;20104;-71
2020/12/26 10:01:05;;;;;;;7.93;6.60;;;3.50;99.90;;;;;;5035512;28;20029;-72
2020/12/26 10:03:32;;;;;;;9.45;7.22;;;3.60;99.90;;;;;;5035814;28;20087;-72
2020/12/26 10:05:57;;;;;;;9.75;7.00;;;3.70;99.90;;;;;;5028118;28;20022;-71
2020/12/26 10:08:23;;;;;;;11.52;6.97;;;3.70;99.90;;;;;;5036191;28;20040;-72
2020/12/26 10:10:48;;;;;;;8.00;6.63;;;3.70;99.90;;;;;;5036482;28;20038;-71
2020/12/26 10:13:14;;;;;;;7.10;5.88;;;3.80;99.90;;;;;;5037356;28;20037;-71
2020/12/26 10:15:39;;;;;;;6.93;5.70;;;3.90;99.90;;;;;;5039107;28;20033;-71
2020/12/26 10:18:05;;;;;;;7.18;6.47;;;4.00;99.90;;;;;;5055795;28;20034;-72
2020/12/26 10:20:30;;;;;;;8.85;6.05;;;4.00;99.90;;;;;;5030706;28;20568;-72
2020/12/26 10:22:56;;;;;;;8.57;6.05;;;4.10;99.90;;;;;;5046732;28;20030;-70
2020/12/26 10:25:24;;;;;;;7.75;6.15;;;4.00;99.90;;;;;;5042326;28;20032;-72
2020/12/26 10:27:54;;;;;;;9.55;5.28;;;4.00;99.90;;;;;;5029191;28;20497;-71
2020/12/26 10:30:20;;;;;;;5.93;5.32;;;3.80;99.90;;;;;;5038504;28;20029;-71
2020/12/26 10:32:47;;;;;;;6.07;5.53;;;3.80;99.90;;;;;;5037721;28;20393;-72
2020/12/26 10:35:13;;;;;;;7.03;6.32;;;3.90;99.90;;;;;;5038096;28;20493;-70
2020/12/26 10:37:38;;;;;;;7.78;5.47;;;3.90;99.90;;;;;;5037836;28;20532;-72
2020/12/26 10:40:07;;;;;;;6.32;5.07;;;3.80;99.90;;;;;;5036835;28;20029;-72
2020/12/26 10:42:33;;;;;;;6.95;5.70;;;3.80;99.90;;;;;;5036045;28;20025;-71
2020/12/26 10:44:59;;;;;;;6.20;5.13;;;3.90;99.90;;;;;;5019011;28;20504;-71
2020/12/26 10:47:24;;;;;;;9.15;5.82;;;4.00;99.90;;;;;;5019327;28;20029;-71
2020/12/26 10:49:50;;;;;;;8.18;5.68;;;4.10;99.90;;;;;;5036449;28;20029;-72
2020/12/26 10:52:16;;;;;;;8.77;5.57;;;4.20;99.90;;;;;;5019149;28;20080;-71
2020/12/26 10:54:41;;;;;;;7.45;5.53;;;4.20;99.90;;;;;;5036390;28;20104;-71
2020/12/26 10:57:07;;;;;;;6.35;5.63;;;4.30;99.90;;;;;;5037720;28;20030;-70
2020/12/26 10:59:32;;;;;;;5.35;4.85;;;4.30;99.90;;;;;;5036810;28;20022;-70
2020/12/26 11:01:58;;;;;;;7.75;5.35;;;4.40;99.90;;;;;;5036101;28;20032;-70
2020/12/26 11:04:23;;;;;;;11.48;5.32;;;4.50;99.90;;;;;;5037467;28;20033;-71
2020/12/26 11:06:49;;;;;;;8.30;5.15;;;4.50;99.90;;;;;;5037625;28;20475;-71
2020/12/26 11:09:16;;;;;;;9.20;6.05;;;4.60;99.90;;;;;;5037551;28;20037;-72
2020/12/26 11:11:46;;;;;;;6.47;5.55;;;4.80;99.90;;;;;;5036837;28;20033;-71
2020/12/26 11:14:12;;;;;;;8.45;5.60;;;4.60;99.90;;;;;;5036561;28;20033;-70
2020/12/26 11:16:37;;;;;;;8.45;5.47;;;4.60;99.90;;;;;;5017409;28;20040;-71
2020/12/26 11:19:03;;;;;;;7.55;5.45;;;4.60;99.90;;;;;;5035216;28;20021;-73
2020/12/26 11:21:28;;;;;;;6.22;4.60;;;4.70;99.90;;;;;;5035989;28;20053;-70
2020/12/26 11:23:54;;;;;;;7.75;5.50;;;4.80;99.90;;;;;;5036022;28;20029;-71
2020/12/26 11:26:19;;;;;;;5.82;4.75;;;4.80;99.90;;;;;;5035237;28;20079;-70
2020/12/26 11:28:45;;;;;;;5.40;4.68;;;4.80;99.90;;;;;;5035393;28;20059;-73
2020/12/26 11:31:10;;;;;;;5.88;4.82;;;4.80;99.90;;;;;;5016956;28;20026;-72
2020/12/26 11:33:37;;;;;;;6.78;4.57;;;4.80;99.90;;;;;;5016889;28;20080;-71
2020/12/26 11:36:03;;;;;;;5.60;5.05;;;4.90;99.90;;;;;;5026452;28;20063;-75
2020/12/26 11:38:28;;;;;;;8.65;5.45;;;4.90;99.90;;;;;;5032216;28;20084;-71
2020/12/26 11:40:54;;;;;;;6.18;4.70;;;5.00;99.90;;;;;;5031474;28;20061;-72
2020/12/26 11:43:20;;;;;;;5.75;4.90;;;5.00;99.90;;;;;;5031685;28;20112;-73
2020/12/26 11:45:45;;;;;;;8.98;5.03;;;5.40;99.90;;;;;;5018030;28;20022;-72
2020/12/26 11:48:11;;;;;;;6.90;4.20;;;5.20;99.90;;;;;;5034772;28;20036;-72
2020/12/26 11:50:36;;;;;;;6.85;3.42;;;5.10;99.90;;;;;;5012049;28;20029;-71
2020/12/26 11:53:02;;;;;;;5.85;4.20;;;4.80;99.90;;;;;;5027317;28;20032;-72
2020/12/26 11:55:27;;;;;;;4.95;3.38;;;4.90;99.90;;;;;;5029985;28;20116;-73
2020/12/26 11:57:53;;;;;;;4.88;3.60;;;4.90;99.90;;;;;;5028860;28;20041;-71
2020/12/26 12:00:18;;;;;;;8.68;3.42;;;4.90;99.90;;;;;;5030296;28;20496;-73
2020/12/26 12:02:44;;;;;;;5.28;3.83;;;4.90;99.90;;;;;;5031540;28;20048;-72
2020/12/26 12:05:09;;;;;;;4.60;3.80;;;4.80;99.90;;;;;;5033093;28;20025;-72
2020/12/26 12:07:36;;;;;;;5.47;3.67;;;4.70;99.90;;;;;;5028612;28;20065;-72
2020/12/26 12:10:03;;;;;;;7.88;4.28;;;4.60;99.90;;;;;;5028079;28;20025;-72
2020/12/26 12:12:28;;;;;;;5.88;3.63;;;4.70;99.90;;;;;;5025661;28;20030;-73
2020/12/26 12:14:54;;;;;;;3.95;3.10;;;4.70;99.90;;;;;;5033005;28;20041;-74
2020/12/26 12:17:19;;;;;;;5.20;3.88;;;4.60;99.90;;;;;;5014870;28;20038;-71
2020/12/26 12:19:45;;;;;;;4.43;3.85;;;4.70;99.90;;;;;;5031151;28;20299;-72
2020/12/26 12:22:10;;;;;;;4.90;4.10;;;4.70;99.90;;;;;;5024911;28;20492;-73
2020/12/26 12:24:37;;;;;;;7.50;4.57;;;4.80;99.90;;;;;;5024549;28;20021;-71
2020/12/26 12:27:02;;;;;;;5.32;4.18;;;4.90;99.90;;;;;;5031990;28;20028;-71
2020/12/26 12:29:28;;;;;;;6.40;4.57;;;4.90;99.90;;;;;;5026014;28;20402;-71
2020/12/26 12:31:53;;;;;;;5.07;3.90;;;5.00;99.90;;;;;;5023728;28;20463;-70
2020/12/26 12:34:19;;;;;;;5.25;3.40;;;5.00;99.90;;;;;;5006723;28;20037;-71
2020/12/26 12:36:44;;;;;;;6.18;4.22;;;5.00;99.90;;;;;;5024508;28;20069;-70
2020/12/26 12:39:10;;;;;;;7.13;3.88;;;5.10;99.90;;;;;;5033030;28;20025;-72
2020/12/26 12:41:36;;;;;;;5.47;4.32;;;5.00;99.90;;;;;;5033462;28;20101;-71
2020/12/26 12:44:01;;;;;;;6.57;4.32;;;4.90;99.90;;;;;;5024635;28;20029;-72
2020/12/26 12:46:27;;;;;;;7.03;4.07;;;4.90;99.90;;;;;;5031611;28;20033;-72